Time;durP1;ratioP1;P1;durP2;ratioP2;P2;SDS_P1;SDS_P2;PMS_P1;PMS_P2;Temp;Humidity;BMP_temperature;BMP_pressure;BME280_temperature;BME280_humidity;BME280_pressure;Samples;Min_cycle;Max_cycle;Signal;HPM_P1;HPM_P2
2021/05/06 00:00:07;;;;;;;1.58;0.63;;;;;;;8.19;57.01;96678.28;5028685;28;20056;-76
2021/05/06 00:01:59;;;;;;;;;;;;;;;7.68;58.85;96691.38;5018305;28;20056;-76
2021/05/06 00:29:53;;;;;;;4.40;0.60;;;;;;;7.96;58.07;96690.44;5027571;28;20393;-76
2021/05/06 00:34:27;;;;;;;3.05;0.85;;;;;;;8.00;59.07;96681.19;5027799;28;20480;-76
2021/05/06 00:36:53;;;;;;;2.20;1.00;;;;;;;7.97;59.07;96673.06;5027397;28;20036;-77
2021/05/06 00:39:24;;;;;;;2.65;1.23;;;;;;;7.93;59.91;96675.38;5027904;28;20040;-76
2021/05/06 00:42:07;;;;;;;2.13;0.90;;;;;;;8.02;59.60;96676.53;5011058;28;20064;-76
2021/05/06 00:45:17;;;;;;;2.85;1.27;;;;;;;8.05;58.58;96675.25;5004448;28;20033;-76
2021/05/06 01:05:43;;;;;;;2.30;1.00;;;;;;;7.77;59.58;96668.44;5025798;28;20045;-76
2021/05/06 01:08:24;;;;;;;2.97;1.00;;;;;;;7.79;59.97;96668.97;5026855;28;20441;-76
2021/05/06 01:11:13;;;;;;;4.53;1.35;;;;;;;7.71;59.70;96657.22;5041620;28;20033;-76
2021/05/06 01:13:42;;;;;;;4.13;1.80;;;;;;;7.78;60.29;96654.44;5008590;28;20079;-76
2021/05/06 01:16:07;;;;;;;2.38;1.02;;;;;;;7.77;60.25;96658.06;5026657;28;20037;-76
2021/05/06 01:18:32;;;;;;;2.97;1.38;;;;;;;7.81;60.41;96662.53;5026748;28;20022;-76
2021/05/06 01:21:00;;;;;;;6.30;1.88;;;;;;;7.70;60.87;96650.44;5043821;28;20044;-76
2021/05/06 01:23:28;;;;;;;2.70;1.85;;;;;;;7.79;60.20;96650.81;5010951;28;20029;-76
2021/05/06 01:25:58;;;;;;;2.92;1.50;;;;;;;7.71;59.93;96656.41;5027112;28;20033;-76
2021/05/06 01:28:27;;;;;;;2.15;1.50;;;;;;;7.64;60.13;96652.19;5027351;28;20503;-76
2021/05/06 01:31:07;;;;;;;4.28;1.25;;;;;;;7.65;60.43;96640.00;5011730;28;20021;-76
2021/05/06 01:33:49;;;;;;;2.70;1.40;;;;;;;7.59;60.69;96641.75;5025158;28;20116;-75
2021/05/06 01:36:19;;;;;;;2.13;1.02;;;;;;;7.57;61.25;96643.00;5041026;28;20037;-76
2021/05/06 02:00:09;;;;;;;3.60;1.60;;;;;;;6.98;62.63;96628.66;5027228;28;20036;-76
2021/05/06 02:02:34;;;;;;;3.40;1.90;;;;;;;7.29;62.47;96629.91;5026857;28;20029;-76
2021/05/06 02:05:00;;;;;;;2.88;1.52;;;;;;;7.31;62.65;96638.22;5027102;28;20189;-75
2021/05/06 02:07:26;;;;;;;2.72;1.48;;;;;;;7.43;62.48;96624.41;5026548;28;20060;-76
2021/05/06 02:09:51;;;;;;;4.20;1.70;;;;;;;7.42;62.62;96628.81;4994125;28;20037;-76
2021/05/06 02:12:18;;;;;;;4.25;2.10;;;;;;;7.51;62.38;96631.78;5026927;28;20091;-76
2021/05/06 02:14:50;;;;;;;3.25;1.55;;;;;;;7.63;62.29;96614.34;5026824;28;20604;-76
2021/05/06 02:17:16;;;;;;;2.70;1.80;;;;;;;7.76;61.63;96617.59;5026627;28;20269;-76
2021/05/06 02:19:45;;;;;;;4.30;1.60;;;;;;;7.87;61.18;96616.72;5026766;28;20385;-76
2021/05/06 02:22:10;;;;;;;4.40;1.77;;;;;;;7.85;61.40;96614.38;5026672;28;20044;-76
2021/05/06 02:24:37;;;;;;;3.38;1.90;;;;;;;7.89;61.78;96617.25;5010406;28;20026;-76
2021/05/06 02:27:03;;;;;;;2.53;1.60;;;;;;;7.94;60.96;96625.09;5026291;28;20489;-76
2021/05/06 02:29:28;;;;;;;3.67;1.70;;;;;;;7.96;61.64;96619.69;5027110;28;20069;-76
2021/05/06 02:31:53;;;;;;;3.70;1.55;;;;;;;8.02;61.35;96622.09;5010497;28;20045;-76
2021/05/06 02:34:19;;;;;;;5.43;2.03;;;;;;;8.00;60.93;96615.56;5027337;28;20018;-76
2021/05/06 02:36:44;;;;;;;4.70;1.70;;;;;;;8.02;60.41;96616.91;5004582;28;20374;-76
2021/05/06 02:39:10;;;;;;;5.10;2.00;;;;;;;8.16;60.96;96611.38;5040511;28;20034;-76
2021/05/06 02:41:36;;;;;;;2.40;1.42;;;;;;;8.15;60.14;96614.97;5027836;28;20408;-76
2021/05/06 02:44:02;;;;;;;2.90;1.40;;;;;;;8.21;59.61;96614.03;5026680;28;20397;-76
2021/05/06 02:46:27;;;;;;;6.32;1.73;;;;;;;8.18;60.05;96606.72;5007931;28;20437;-76
2021/05/06 02:48:52;;;;;;;2.60;1.77;;;;;;;8.20;59.87;96617.63;5031476;28;20033;-76
2021/05/06 02:51:19;;;;;;;3.20;1.75;;;;;;;8.17;60.41;96605.91;5013815;28;20554;-76
2021/05/06 02:53:52;;;;;;;3.65;1.63;;;;;;;8.24;60.16;96603.13;5046402;28;20048;-76
2021/05/06 02:56:25;;;;;;;3.95;1.58;;;;;;;8.23;59.55;96606.78;5029339;28;20028;-76
2021/05/06 02:59:04;;;;;;;5.35;1.55;;;;;;;8.30;59.54;96599.59;5045724;28;20476;-75
2021/05/06 03:04:13;;;;;;;5.07;1.40;;;;;;;8.34;58.73;96603.25;5044148;28;20037;-77
2021/05/06 03:06:50;;;;;;;3.33;1.30;;;;;;;8.35;58.58;96609.25;5012978;28;20040;-76
2021/05/06 03:09:29;;;;;;;6.15;1.77;;;;;;;8.38;58.63;96608.72;5044887;28;20052;-76
2021/05/06 03:23:14;;;;;;;2.30;1.00;;;;;;;8.60;57.00;96603.53;5030943;28;20095;-76
2021/05/06 03:25:21;;;;;;;2.22;1.17;;;;;;;8.56;57.30;96599.88;5024109;28;20104;-76
2021/05/06 03:44:05;;;;;;;5.35;1.50;;;;;;;8.49;59.24;96584.50;5025998;28;20072;-76
2021/05/06 03:47:36;;;;;;;2.97;1.30;;;;;;;8.36;59.98;96575.28;5028901;28;20076;-77
2021/05/06 04:16:41;;;;;;;3.80;1.60;;;;;;;8.37;62.13;96569.03;5044858;28;20388;-76
2021/05/06 04:22:23;;;;;;;4.32;1.80;;;;;;;8.36;61.91;96574.47;5028176;28;20075;-76
2021/05/06 04:27:24;;;;;;;4.70;1.58;;;;;;;8.34;62.38;96566.94;5042641;28;20033;-77
2021/05/06 04:37:45;;;;;;;2.80;1.55;;;;;;;8.22;62.57;96551.50;5042710;28;20112;-77
2021/05/06 04:53:34;;;;;;;4.57;1.55;;;;;;;8.30;62.47;96550.31;5044851;28;20449;-77
2021/05/06 05:06:18;;;;;;;4.35;1.30;;;;;;;8.20;63.49;96540.59;5026347;28;20037;-77
2021/05/06 05:08:55;;;;;;;3.75;1.63;;;;;;;8.25;63.57;96552.84;5042972;28;20875;-77
2021/05/06 05:26:48;;;;;;;5.50;1.48;;;;;;;8.18;63.98;96552.25;5043845;28;20456;-78
2021/05/06 05:29:14;;;;;;;4.28;1.70;;;;;;;8.16;64.22;96539.53;5029723;28;20033;-78
2021/05/06 05:31:39;;;;;;;5.18;2.28;;;;;;;8.17;63.84;96537.72;5011785;28;20335;-78
2021/05/06 05:34:25;;;;;;;3.38;1.58;;;;;;;8.22;64.36;96540.34;5010603;28;20436;-78
2021/05/06 05:36:54;;;;;;;6.05;1.88;;;;;;;8.19;64.45;96533.06;5027860;28;20026;-78
2021/05/06 05:39:28;;;;;;;3.03;1.75;;;;;;;8.24;63.66;96540.88;5028281;28;20485;-78
2021/05/06 05:55:20;;;;;;;6.68;2.13;;;;;;;8.25;64.13;96552.84;5027613;28;20025;-78
2021/05/06 05:57:48;;;;;;;4.28;2.25;;;;;;;8.12;63.84;96554.00;5011563;28;20657;-78
2021/05/06 06:00:14;;;;;;;4.05;1.65;;;;;;;8.27;64.00;96550.00;5027118;28;20053;-78
2021/05/06 06:02:40;;;;;;;4.55;2.60;;;;;;;8.23;64.69;96560.09;5018125;28;20029;-78
2021/05/06 06:05:06;;;;;;;4.00;1.90;;;;;;;8.21;64.06;96546.59;5022312;28;20030;-78
2021/05/06 06:07:31;;;;;;;3.75;1.90;;;;;;;8.31;64.55;96553.66;5025939;28;20036;-78
2021/05/06 06:09:57;;;;;;;5.28;2.10;;;;;;;8.30;64.27;96555.50;5011189;28;20034;-78
2021/05/06 06:12:22;;;;;;;3.80;2.05;;;;;;;8.33;63.89;96559.38;5023826;28;20118;-78
2021/05/06 06:17:22;;;;;;;3.90;2.47;;;;;;;8.27;64.67;96553.38;5025981;28;20029;-78
2021/05/06 06:19:50;;;;;;;3.65;1.98;;;;;;;8.35;64.58;96554.75;5026202;28;20030;-78
2021/05/06 06:22:17;;;;;;;4.32;2.08;;;;;;;8.34;64.72;96543.59;5013292;28;20032;-78
2021/05/06 06:24:43;;;;;;;6.38;2.55;;;;;;;8.43;64.40;96546.53;5014081;28;20025;-79
2021/05/06 06:27:08;;;;;;;4.80;1.83;;;;;;;8.44;64.45;96546.31;5030914;28;20064;-79
2021/05/06 06:29:35;;;;;;;7.38;2.00;;;;;;;8.49;64.14;96532.59;5026676;28;20021;-78
2021/05/06 06:32:03;;;;;;;4.85;2.60;;;;;;;8.48;64.40;96546.59;5030385;28;20037;-78
2021/05/06 06:34:28;;;;;;;4.78;2.13;;;;;;;8.49;64.56;96537.78;5029884;28;20059;-78
2021/05/06 06:36:54;;;;;;;3.20;2.75;;;;;;;8.56;64.23;96538.38;5014471;28;20476;-78
2021/05/06 06:39:23;;;;;;;5.07;2.38;;;;;;;8.60;64.31;96539.47;5031469;28;20034;-78
2021/05/06 06:41:48;;;;;;;5.85;2.60;;;;;;;8.56;64.41;96532.41;5015495;28;20034;-78
2021/05/06 06:44:14;;;;;;;3.72;2.30;;;;;;;8.68;64.17;96534.84;5048118;28;20033;-78
2021/05/06 06:46:40;;;;;;;4.22;2.60;;;;;;;8.66;64.39;96537.69;5010909;28;20021;-78
2021/05/06 06:49:06;;;;;;;7.57;2.63;;;;;;;8.69;64.44;96534.59;5030398;28;20476;-78
2021/05/06 06:51:31;;;;;;;4.90;2.95;;;;;;;8.72;63.83;96535.91;5030987;28;20101;-79
2021/05/06 06:53:57;;;;;;;4.50;2.38;;;;;;;8.76;64.08;96535.16;5047219;28;20042;-79
2021/05/06 06:56:22;;;;;;;4.43;2.35;;;;;;;8.70;64.29;96530.19;5030484;28;20045;-78
2021/05/06 06:58:52;;;;;;;4.88;2.35;;;;;;;8.85;64.02;96532.13;5030066;28;20029;-78
2021/05/06 07:01:18;;;;;;;5.68;2.72;;;;;;;8.87;63.88;96522.25;5030306;28;20063;-78
2021/05/06 07:03:44;;;;;;;4.53;2.97;;;;;;;8.95;64.56;96522.56;5030330;28;20033;-78
2021/05/06 07:06:10;;;;;;;4.38;2.70;;;;;;;8.96;64.17;96525.94;5007064;28;20038;-78
2021/05/06 07:08:38;;;;;;;5.28;2.70;;;;;;;9.09;64.35;96519.56;4987007;28;20042;-78
2021/05/06 07:11:04;;;;;;;4.80;2.50;;;;;;;9.26;63.78;96519.41;5044163;28;20033;-79
2021/05/06 07:13:30;;;;;;;6.40;2.53;;;;;;;9.19;63.31;96517.78;4997507;28;20033;-80
2021/05/06 07:16:01;;;;;;;8.13;2.80;;;;;;;9.05;62.38;96523.66;5029992;28;20033;-79
2021/05/06 07:18:27;;;;;;;4.93;2.85;;;;;;;9.12;63.91;96509.44;5021555;28;20030;-78
2021/05/06 07:20:54;;;;;;;5.82;2.40;;;;;;;9.24;63.66;96511.06;5029454;28;20495;-79
2021/05/06 07:23:21;;;;;;;3.90;2.65;;;;;;;9.15;64.08;96508.94;5027786;28;20037;-79
2021/05/06 07:25:55;;;;;;;5.25;3.10;;;;;;;9.04;64.62;96496.91;5012589;28;20040;-79
2021/05/06 07:28:36;;;;;;;8.30;2.97;;;;;;;9.27;63.38;96508.75;5029978;28;20384;-78
2021/05/06 07:31:03;;;;;;;6.78;3.00;;;;;;;9.48;63.43;96496.63;5025143;28;20373;-79
2021/05/06 07:33:30;;;;;;;7.03;2.88;;;;;;;9.66;61.98;96498.00;5029130;28;20033;-78
2021/05/06 07:35:57;;;;;;;4.78;3.10;;;;;;;9.81;62.42;96509.50;5028761;28;20404;-79
2021/05/06 07:38:23;;;;;;;6.03;3.08;;;;;;;9.81;63.17;96497.28;5012176;28;20230;-79
2021/05/06 07:40:49;;;;;;;4.55;2.70;;;;;;;9.87;62.78;96501.47;5012779;28;20025;-78
2021/05/06 07:43:14;;;;;;;4.28;3.15;;;;;;;10.02;62.26;96503.28;5010311;28;20025;-78
2021/05/06 07:45:40;;;;;;;3.72;2.80;;;;;;;10.04;61.49;96497.84;5027472;28;20052;-78
2021/05/06 07:48:06;;;;;;;4.13;2.58;;;;;;;9.91;62.04;96499.91;5027354;28;20485;-78
2021/05/06 07:50:31;;;;;;;5.22;3.10;;;;;;;10.00;61.90;96494.19;5011929;28;20038;-79
2021/05/06 07:53:06;;;;;;;5.93;3.30;;;;;;;9.94;62.07;96498.63;4995923;28;20025;-79
2021/05/06 07:55:31;;;;;;;11.10;4.18;;;;;;;9.86;62.81;96492.09;5024059;28;20044;-79
2021/05/06 07:57:58;;;;;;;4.45;3.55;;;;;;;10.01;62.19;96495.78;5027801;28;20029;-79
2021/05/06 08:00:25;;;;;;;5.32;3.08;;;;;;;10.01;62.36;96493.19;5011356;28;20029;-79
2021/05/06 08:02:51;;;;;;;6.30;3.65;;;;;;;9.96;63.04;96490.56;5021825;28;20029;-79
2021/05/06 08:05:16;;;;;;;5.35;2.65;;;;;;;10.06;61.59;96482.78;4994571;28;20440;-80
2021/05/06 08:07:42;;;;;;;5.30;3.30;;;;;;;10.08;61.29;96478.88;5023106;28;20389;-79
2021/05/06 08:10:09;;;;;;;3.95;2.90;;;;;;;10.17;60.89;96481.75;5041986;28;20037;-79
2021/05/06 08:12:35;;;;;;;4.03;3.20;;;;;;;10.21;60.99;96487.22;5011257;28;20034;-79
2021/05/06 08:15:02;;;;;;;6.00;2.85;;;;;;;10.24;60.52;96484.09;5012193;28;20377;-79
2021/05/06 08:17:28;;;;;;;5.60;3.10;;;;;;;10.36;60.75;96495.06;5012477;28;20381;-79
2021/05/06 08:19:53;;;;;;;4.70;3.17;;;;;;;10.24;61.78;96486.69;5028717;28;20037;-78
2021/05/06 08:22:19;;;;;;;4.90;3.10;;;;;;;10.42;61.15;96481.03;5013340;28;20025;-78
2021/05/06 08:24:44;;;;;;;5.30;3.25;;;;;;;10.33;61.32;96485.16;5003658;28;20033;-78
2021/05/06 08:27:10;;;;;;;6.80;3.65;;;;;;;10.41;62.41;96486.47;5010834;28;20037;-78
2021/05/06 08:29:36;;;;;;;7.57;3.80;;;;;;;10.64;61.52;96493.78;4995790;28;20068;-79
2021/05/06 08:32:01;;;;;;;5.65;3.58;;;;;;;10.62;61.43;96493.22;5012270;28;20037;-78
2021/05/06 08:34:27;;;;;;;4.88;3.35;;;;;;;10.65;60.66;96486.75;4996375;28;20060;-79
2021/05/06 08:36:52;;;;;;;4.20;3.35;;;;;;;10.72;60.72;96491.69;5041495;28;20561;-79
2021/05/06 08:39:18;;;;;;;5.57;3.78;;;;;;;10.81;60.85;96497.91;5027924;28;20068;-79
2021/05/06 08:41:43;;;;;;;4.43;3.10;;;;;;;10.76;60.66;96497.91;5027202;28;20038;-79
2021/05/06 08:44:12;;;;;;;5.28;3.72;;;;;;;10.66;60.87;96493.53;5026398;28;20036;-79
2021/05/06 08:46:50;;;;;;;6.28;3.85;;;;;;;10.60;60.70;96497.16;5027869;28;20523;-79
2021/05/06 08:49:16;;;;;;;5.55;3.70;;;;;;;10.57;61.63;96492.47;5040450;28;20428;-79
2021/05/06 08:51:42;;;;;;;4.63;3.22;;;;;;;10.58;60.81;96494.81;5027803;28;20029;-78
2021/05/06 08:54:07;;;;;;;6.03;3.85;;;;;;;10.61;61.84;96496.13;5008324;28;20523;-78
2021/05/06 08:56:33;;;;;;;5.78;3.35;;;;;;;10.52;60.75;96493.25;5023404;28;20033;-79
2021/05/06 08:58:58;;;;;;;5.53;3.40;;;;;;;10.48;61.53;96494.81;5010409;28;20045;-79
2021/05/06 09:01:24;;;;;;;6.68;3.50;;;;;;;10.45;61.62;96487.50;5022932;28;20034;-79
2021/05/06 09:03:49;;;;;;;7.28;4.15;;;;;;;10.63;61.35;96488.81;5010468;28;20041;-78
2021/05/06 09:06:20;;;;;;;8.60;3.90;;;;;;;10.77;61.63;96491.69;5027880;28;20033;-78
2021/05/06 09:08:52;;;;;;;4.88;3.40;;;;;;;11.04;59.91;96494.00;5027269;28;20040;-78
2021/05/06 09:11:31;;;;;;;5.93;3.67;;;;;;;10.98;60.60;96490.59;5028675;28;20078;-78
2021/05/06 09:14:07;;;;;;;5.72;3.35;;;;;;;11.27;59.23;96486.63;5024871;28;20486;-79
2021/05/06 09:16:39;;;;;;;5.38;3.20;;;;;;;11.55;59.32;96488.63;5009851;28;20140;-78
2021/05/06 09:19:06;;;;;;;5.43;3.17;;;;;;;11.71;57.51;96481.50;5009250;28;20029;-80
2021/05/06 09:21:34;;;;;;;4.93;3.30;;;;;;;11.70;57.57;96472.13;5042425;28;20037;-77
2021/05/06 09:24:07;;;;;;;4.93;3.28;;;;;;;11.98;57.17;96477.75;5010793;28;20484;-79
2021/05/06 09:26:33;;;;;;;5.47;2.63;;;;;;;12.40;57.05;96478.25;5042850;28;20583;-79
2021/05/06 09:28:59;;;;;;;3.35;2.50;;;;;;;12.64;54.28;96486.16;5044042;28;20037;-79
2021/05/06 09:31:24;;;;;;;4.50;2.63;;;;;;;12.69;55.55;96481.66;5010639;28;20119;-78
2021/05/06 09:33:52;;;;;;;6.25;2.50;;;;;;;12.52;56.38;96476.84;5042456;28;20398;-78
2021/05/06 09:36:23;;;;;;;4.55;2.28;;;;;;;12.67;52.57;96475.94;5003777;28;20128;-78
2021/05/06 09:38:56;;;;;;;4.03;2.83;;;;;;;12.81;54.42;96468.25;5010666;28;20164;-78
2021/05/06 09:41:32;;;;;;;5.75;2.97;;;;;;;12.86;51.76;96462.97;5010135;28;20030;-78
2021/05/06 09:44:12;;;;;;;5.07;2.80;;;;;;;13.00;51.76;96467.53;5024438;28;20038;-79
2021/05/06 09:46:43;;;;;;;5.10;2.90;;;;;;;13.51;50.76;96447.94;5023993;28;20030;-78
2021/05/06 09:49:12;;;;;;;4.45;2.83;;;;;;;13.50;51.94;96449.75;4992454;28;20407;-78
2021/05/06 09:51:44;;;;;;;3.78;2.65;;;;;;;13.45;50.67;96448.00;5024332;28;20033;-78
2021/05/06 09:54:14;;;;;;;5.38;3.10;;;;;;;13.15;51.74;96443.88;5009702;28;20030;-77
2021/05/06 09:56:40;;;;;;;4.78;3.35;;;;;;;13.28;50.47;96452.84;5029112;28;20044;-78
2021/05/06 09:59:06;;;;;;;4.32;2.75;;;;;;;13.03;50.42;96443.47;5011275;28;20124;-78
2021/05/06 10:01:44;;;;;;;4.68;2.83;;;;;;;12.95;51.92;96437.00;5012157;28;20029;-78
2021/05/06 10:04:13;;;;;;;4.55;3.35;;;;;;;13.25;51.55;96435.13;5029171;28;20057;-78
2021/05/06 10:06:39;;;;;;;3.45;2.95;;;;;;;13.55;51.41;96426.16;5024982;28;20083;-78
2021/05/06 10:09:05;;;;;;;6.25;2.88;;;;;;;13.46;47.85;96420.78;5031184;28;20465;-79
2021/05/06 10:11:31;;;;;;;5.30;2.60;;;;;;;13.46;48.67;96423.38;5013092;28;20032;-78
2021/05/06 10:13:58;;;;;;;4.78;3.05;;;;;;;13.23;50.83;96405.88;5013241;28;20031;-78
2021/05/06 10:16:24;;;;;;;3.97;2.78;;;;;;;13.09;52.19;96397.94;5000640;28;20037;-78
2021/05/06 10:18:49;;;;;;;4.82;2.70;;;;;;;12.97;52.31;96397.53;5029354;28;20017;-78
2021/05/06 10:21:16;;;;;;;4.30;2.78;;;;;;;12.86;52.67;96389.03;5029018;28;20033;-78
2021/05/06 10:23:43;;;;;;;4.65;2.60;;;;;;;12.50;52.22;96397.25;5043042;28;20106;-77
2021/05/06 10:26:09;;;;;;;5.70;2.97;;;;;;;12.55;52.15;96418.84;5029956;28;20029;-77
2021/05/06 10:28:35;;;;;;;3.90;2.33;;;;;;;12.68;51.75;96419.25;5029778;28;20025;-78
2021/05/06 10:31:02;;;;;;;3.75;2.50;;;;;;;12.50;53.73;96379.72;5045561;28;20035;-78
2021/05/06 10:33:28;;;;;;;4.75;2.70;;;;;;;12.48;53.22;96373.25;5029788;28;20029;-78
2021/05/06 10:35:54;;;;;;;4.57;2.53;;;;;;;12.63;53.45;96370.47;5012048;28;20525;-77
2021/05/06 10:38:19;;;;;;;5.60;2.88;;;;;;;12.79;53.84;96363.25;5013275;28;20025;-78
2021/05/06 10:40:45;;;;;;;5.63;2.63;;;;;;;13.02;52.56;96372.16;5029491;28;20366;-78
2021/05/06 10:43:18;;;;;;;4.25;2.85;;;;;;;12.92;53.14;96378.25;5046085;28;20041;-77
2021/05/06 10:45:53;;;;;;;4.72;3.03;;;;;;;12.34;52.53;96368.66;5043435;28;20616;-81
2021/05/06 10:48:19;;;;;;;5.10;2.92;;;;;;;12.95;52.60;96384.00;5026291;28;20045;-77
2021/05/06 10:50:44;;;;;;;4.75;3.08;;;;;;;13.05;52.33;96387.25;5012727;28;20029;-77
2021/05/06 10:53:25;;;;;;;3.65;2.90;;;;;;;12.65;55.38;96378.03;5027986;28;20030;-78
2021/05/06 10:55:53;;;;;;;5.20;3.00;;;;;;;13.00;52.67;96357.78;5011646;28;20076;-77
2021/05/06 10:58:29;;;;;;;7.32;2.78;;;;;;;13.10;52.34;96353.22;5012315;28;20037;-78
2021/05/06 11:01:04;;;;;;;4.65;3.08;;;;;;;13.02;52.06;96348.63;5025878;28;20052;-78
2021/05/06 11:03:31;;;;;;;4.97;2.88;;;;;;;13.34;51.40;96349.81;5028489;28;20038;-78
2021/05/06 11:05:58;;;;;;;6.45;2.80;;;;;;;13.53;50.33;96334.13;5028081;28;20110;-77
2021/05/06 11:08:25;;;;;;;4.90;2.67;;;;;;;13.60;52.56;96328.53;5011390;28;20107;-77
2021/05/06 11:10:50;;;;;;;4.82;2.40;;;;;;;13.40;52.48;96340.84;5028778;28;20381;-80
2021/05/06 11:13:17;;;;;;;4.15;2.30;;;;;;;13.21;51.13;96334.78;5027538;28;20040;-79
2021/05/06 11:15:43;;;;;;;5.18;2.78;;;;;;;13.44;51.21;96331.38;5027934;28;20037;-78
2021/05/06 11:18:10;;;;;;;5.72;2.58;;;;;;;13.36;51.64;96326.78;5006177;28;20457;-77
2021/05/06 11:20:35;;;;;;;5.35;2.67;;;;;;;13.21;49.57;96330.38;5005762;28;20033;-78
2021/05/06 11:23:01;;;;;;;5.00;2.95;;;;;;;13.21;50.95;96316.50;5023213;28;20272;-78
2021/05/06 11:25:31;;;;;;;3.47;2.40;;;;;;;12.86;52.46;96324.50;5021627;28;20025;-77
2021/05/06 11:28:08;;;;;;;7.43;2.42;;;;;;;12.66;52.67;96314.28;5010367;28;20056;-78
2021/05/06 11:30:44;;;;;;;2.90;2.03;;;;;;;12.67;52.52;96315.84;5045716;28;20043;-78
2021/05/06 11:33:18;;;;;;;3.55;2.13;;;;;;;12.62;52.77;96315.91;5008463;28;20025;-78
2021/05/06 11:35:53;;;;;;;4.75;1.70;;;;;;;12.24;53.45;96311.34;5027533;28;20527;-77
2021/05/06 11:38:19;;;;;;;6.07;1.75;;;;;;;12.17;54.78;96309.03;5022112;28;20371;-78
2021/05/06 11:40:44;;;;;;;3.25;1.65;;;;;;;12.20;55.68;96293.88;5028154;28;20508;-77
2021/05/06 11:43:09;;;;;;;4.15;1.77;;;;;;;12.53;55.42;96292.25;5028446;28;20029;-78
2021/05/06 11:45:37;;;;;;;4.35;1.60;;;;;;;12.60;55.53;96284.84;5027299;28;20065;-78
2021/05/06 11:48:03;;;;;;;3.95;1.75;;;;;;;12.63;56.01;96286.13;5026701;28;20033;-78
2021/05/06 11:50:32;;;;;;;4.80;1.75;;;;;;;12.58;55.41;96289.59;5011389;28;20507;-78
2021/05/06 11:52:59;;;;;;;4.30;2.33;;;;;;;12.45;56.76;96285.03;5044206;28;20087;-79
2021/05/06 11:55:40;;;;;;;4.55;2.20;;;;;;;12.15;57.28;96277.22;5042983;28;20041;-78
2021/05/06 11:58:06;;;;;;;3.25;1.80;;;;;;;12.46;56.47;96276.91;5025892;28;20029;-77
2021/05/06 12:00:32;;;;;;;4.38;1.88;;;;;;;12.29;57.31;96279.97;5028423;28;20022;-78
2021/05/06 12:03:06;;;;;;;2.78;1.75;;;;;;;12.01;57.67;96275.53;5010906;28;20021;-78
2021/05/06 12:05:57;;;;;;;5.10;2.42;;;;;;;11.84;59.88;96268.88;5027001;28;20060;-77
2021/05/06 12:08:25;;;;;;;3.30;2.05;;;;;;;12.15;59.30;96266.03;5027800;28;20120;-78
2021/05/06 12:10:52;;;;;;;4.68;2.63;;;;;;;12.15;60.59;96266.78;5044166;28;20029;-78
2021/05/06 12:13:29;;;;;;;3.65;2.35;;;;;;;12.20;60.03;96258.16;5010577;28;20079;-77
2021/05/06 12:16:18;;;;;;;7.65;2.67;;;;;;;12.02;59.71;96246.56;5025912;28;20492;-78
2021/05/06 12:19:02;;;;;;;4.75;2.65;;;;;;;12.15;59.71;96230.25;5026759;28;20409;-77
2021/05/06 12:21:51;;;;;;;4.38;2.40;;;;;;;12.27;59.04;96226.47;5028551;28;20057;-78
2021/05/06 12:24:36;;;;;;;6.90;2.90;;;;;;;12.16;58.84;96223.97;5025634;28;20060;-78
2021/05/06 12:27:21;;;;;;;3.38;2.08;;;;;;;11.74;59.03;96220.19;5027529;28;20033;-78
2021/05/06 12:29:51;;;;;;;4.75;2.38;;;;;;;11.90;60.04;96212.22;5041760;28;20485;-78
2021/05/06 12:32:22;;;;;;;3.83;1.83;;;;;;;12.06;59.33;96218.09;5011425;28;20034;-77
2021/05/06 12:34:48;;;;;;;1.92;1.73;;;;;;;11.96;60.46;96226.78;5025704;28;20079;-80
2021/05/06 12:37:14;;;;;;;5.25;1.98;;;;;;;11.99;60.09;96223.63;5010860;28;20120;-78
2021/05/06 12:39:40;;;;;;;4.43;1.92;;;;;;;11.97;60.22;96213.47;5024963;28;20036;-78
2021/05/06 12:42:06;;;;;;;2.30;1.40;;;;;;;11.90;59.70;96212.22;5010579;28;20037;-78
2021/05/06 12:44:34;;;;;;;3.33;1.55;;;;;;;11.52;61.80;96202.41;5042372;28;20041;-77
2021/05/06 12:47:21;;;;;;;1.90;1.23;;;;;;;11.38;61.76;96202.25;5028235;28;20122;-77
2021/05/06 12:49:49;;;;;;;1.50;1.00;;;;;;;11.53;61.57;96195.34;5035922;28;20037;-78
2021/05/06 12:52:32;;;;;;;1.92;0.98;;;;;;;11.26;61.32;96199.22;5021299;28;20488;-77
2021/05/06 12:54:59;;;;;;;2.85;0.73;;;;;;;11.48;60.70;96193.56;5008602;28;20407;-78
2021/05/06 12:57:25;;;;;;;0.95;0.60;;;;;;;11.47;60.79;96197.22;5036193;28;20037;-78
2021/05/06 12:59:50;;;;;;;2.22;1.15;;;;;;;11.35;60.77;96192.38;5027071;28;20302;-77
2021/05/06 13:02:17;;;;;;;2.75;0.73;;;;;;;11.50;60.54;96181.03;5026617;28;20041;-78
2021/05/06 13:04:55;;;;;;;2.45;0.73;;;;;;;11.33;59.65;96180.69;5009429;28;20405;-78
2021/05/06 13:07:21;;;;;;;1.98;0.60;;;;;;;11.42;60.19;96186.84;5026193;28;20048;-79
2021/05/06 13:09:50;;;;;;;2.08;0.63;;;;;;;11.35;58.92;96168.91;4993682;28;20038;-78
2021/05/06 13:12:17;;;;;;;1.00;0.80;;;;;;;11.30;60.46;96168.94;5025751;28;20037;-79
2021/05/06 13:14:50;;;;;;;2.22;0.70;;;;;;;11.47;61.19;96167.78;5026445;28;20109;-78
2021/05/06 13:17:22;;;;;;;2.05;0.70;;;;;;;11.46;61.33;96161.78;5026422;28;20056;-80
2021/05/06 13:19:47;;;;;;;1.63;0.60;;;;;;;11.51;60.89;96145.31;5031207;28;20041;-79
2021/05/06 13:22:12;;;;;;;2.85;0.60;;;;;;;11.32;61.05;96147.84;4990754;28;20556;-78
2021/05/06 13:24:42;;;;;;;2.95;0.60;;;;;;;11.43;60.89;96150.06;5039717;28;20647;-80
2021/05/06 13:27:19;;;;;;;1.35;0.60;;;;;;;11.21;62.67;96147.16;5011159;28;20089;-79
2021/05/06 13:29:46;;;;;;;1.27;0.70;;;;;;;11.41;61.03;96128.72;5009952;28;20044;-79
2021/05/06 13:32:12;;;;;;;1.27;0.60;;;;;;;11.58;61.97;96132.72;5029106;28;20040;-79
2021/05/06 13:34:52;;;;;;;1.13;0.60;;;;;;;11.25;62.11;96127.31;5026481;28;20037;-80
2021/05/06 13:37:18;;;;;;;1.45;0.50;;;;;;;11.68;60.64;96116.97;5010540;28;20528;-79
2021/05/06 13:39:43;;;;;;;0.95;0.47;;;;;;;11.35;60.48;96119.41;5043578;28;20064;-79
2021/05/06 13:42:08;;;;;;;1.17;0.45;;;;;;;11.63;60.19;96122.25;5027108;28;20041;-80
2021/05/06 13:44:35;;;;;;;1.50;0.60;;;;;;;11.64;60.62;96105.56;5025711;28;20100;-79
2021/05/06 13:47:05;;;;;;;1.58;0.63;;;;;;;11.66;60.97;96105.28;5027082;28;20507;-78
2021/05/06 13:49:32;;;;;;;2.05;0.52;;;;;;;11.76;61.38;96100.72;5026564;28;20075;-79
2021/05/06 13:51:59;;;;;;;2.03;0.88;;;;;;;11.71;61.63;96079.94;5027501;28;20565;-79
2021/05/06 13:54:27;;;;;;;2.05;0.60;;;;;;;11.90;60.59;96066.16;5022658;28;20037;-78
2021/05/06 13:56:52;;;;;;;0.70;0.50;;;;;;;12.05;60.68;96050.34;5026869;28;20512;-79
2021/05/06 13:59:18;;;;;;;1.73;0.50;;;;;;;11.98;60.74;96049.91;5026578;28;20041;-78
2021/05/06 14:01:44;;;;;;;1.00;0.40;;;;;;;12.01;60.89;96070.22;5026331;28;20507;-80
2021/05/06 14:04:10;;;;;;;0.75;0.40;;;;;;;11.89;59.30;96067.19;5018719;28;20354;-78
2021/05/06 14:06:36;;;;;;;0.68;0.40;;;;;;;11.87;60.22;96071.94;5010076;28;20044;-79
2021/05/06 14:09:02;;;;;;;0.45;0.30;;;;;;;11.88;59.92;96069.03;5026062;28;20025;-79
2021/05/06 14:11:28;;;;;;;1.67;0.40;;;;;;;11.85;60.00;96059.16;5026936;28;20366;-79
2021/05/06 14:13:56;;;;;;;1.15;0.47;;;;;;;11.60;60.42;96060.22;5042888;28;20032;-79
2021/05/06 14:16:23;;;;;;;0.47;0.35;;;;;;;11.64;61.19;96052.66;5025596;28;20493;-79
2021/05/06 14:18:50;;;;;;;0.90;0.40;;;;;;;11.79;60.78;96045.41;5027253;28;20025;-78
2021/05/06 14:21:17;;;;;;;1.45;0.30;;;;;;;11.84;61.23;96039.38;5037011;28;20059;-79
2021/05/06 14:23:45;;;;;;;0.50;0.30;;;;;;;12.00;60.29;96034.75;5042459;28;20092;-79
2021/05/06 14:26:11;;;;;;;0.40;0.30;;;;;;;11.97;59.79;96033.47;5025873;28;20025;-79
2021/05/06 14:28:38;;;;;;;1.27;0.40;;;;;;;12.12;59.66;96029.13;5010534;28;20353;-79
2021/05/06 14:31:03;;;;;;;0.73;0.40;;;;;;;12.15;59.24;96012.91;5026001;28;20034;-79
2021/05/06 14:33:29;;;;;;;0.70;0.57;;;;;;;12.33;60.04;96012.09;5010553;28;20098;-79
2021/05/06 14:35:54;;;;;;;0.52;0.30;;;;;;;12.20;60.38;96004.22;5024307;28;20088;-81
2021/05/06 14:38:23;;;;;;;0.63;0.40;;;;;;;12.30;60.89;96006.69;5026434;28;20033;-79
2021/05/06 14:40:48;;;;;;;0.40;0.30;;;;;;;12.21;61.16;95982.28;5009323;28;20488;-78
2021/05/06 14:43:14;;;;;;;0.68;0.30;;;;;;;12.17;61.71;95990.69;5044131;28;20033;-78
2021/05/06 14:45:39;;;;;;;0.40;0.40;;;;;;;12.31;60.57;95987.34;5044985;28;20163;-79
2021/05/06 14:48:07;;;;;;;1.58;0.30;;;;;;;12.24;59.99;95992.16;5031253;28;20038;-79
2021/05/06 14:50:32;;;;;;;0.47;0.47;;;;;;;12.15;59.18;95992.81;5028415;28;20112;-80
2021/05/06 14:52:58;;;;;;;0.80;0.30;;;;;;;12.18;59.24;95984.41;5013150;28;20530;-78
2021/05/06 14:55:24;;;;;;;0.20;0.20;;;;;;;11.89;60.13;95979.31;4997760;28;20029;-80